Terminal Aerodrome Forecast
Issued by NWS

Home | Current Version | Previous Version | Text Only | Print | Product List | Glossary On
Versions: 1 2 3 4 5 6 7 8 9 10 11 12 13 14 15 16
000
FTUS45 KGGW 310500
TAFSDY
TAF
KSDY 310523Z 3106/0106 01007KT 5SM BR OVC005
     FM311200 06010KT 4SM -SN OVC005
     FM312000 05014KT 1SM -SN BR OVC007
     FM010300 01010KT 2SM BR OVC004
      AMD LTD TO CLD VIS AND WIND=

USA.gov is the U.S. government's official web portal to all federal, state and local government web resources and services.